createdAt,value
2019-05-22T00:02:29.798Z,11.60
2019-05-22T00:05:11.286Z,11.60
2019-05-22T00:07:43.363Z,11.50
2019-05-22T00:10:19.243Z,11.50
2019-05-22T00:12:51.862Z,11.50
2019-05-22T00:15:24.209Z,11.40
2019-05-22T00:17:54.733Z,11.40
2019-05-22T00:20:27.110Z,11.40
2019-05-22T00:22:57.097Z,11.40
2019-05-22T00:25:29.012Z,11.30
2019-05-22T00:28:00.116Z,11.20
2019-05-22T00:30:31.621Z,11.20
2019-05-22T00:33:02.227Z,11.20
2019-05-22T00:35:32.120Z,11.20
2019-05-22T00:38:04.757Z,11.20
2019-05-22T00:40:36.151Z,11.20
2019-05-22T00:43:13.825Z,11.10
2019-05-22T00:45:39.540Z,11.10
2019-05-22T00:48:09.041Z,11.00
2019-05-22T00:50:44.770Z,11.00
2019-05-22T00:53:33.535Z,10.90
2019-05-22T00:56:11.556Z,10.90
2019-05-22T00:58:47.347Z,11.00
2019-05-22T01:01:32.533Z,10.90
2019-05-22T01:04:05.746Z,10.90
2019-05-22T01:06:36.423Z,10.90
2019-05-22T01:09:08.746Z,10.90
2019-05-22T01:11:39.536Z,10.90
2019-05-22T01:14:10.028Z,11.00
2019-05-22T01:16:42.271Z,11.20
2019-05-22T01:19:11.778Z,11.20
2019-05-22T01:21:41.332Z,11.20
2019-05-22T01:24:12.477Z,11.30
2019-05-22T01:26:43.783Z,11.30
2019-05-22T01:29:13.772Z,11.30
2019-05-22T01:31:48.781Z,11.30
2019-05-22T01:34:23.063Z,11.30
2019-05-22T01:36:57.344Z,11.30
2019-05-22T01:39:58.775Z,11.30
2019-05-22T01:42:35.115Z,11.30
2019-05-22T01:45:07.341Z,11.30
2019-05-22T01:48:08.878Z,11.30
2019-05-22T01:50:53.873Z,11.20
2019-05-22T01:53:27.226Z,11.10
2019-05-22T01:55:59.135Z,11.00
2019-05-22T01:58:31.227Z,10.90
2019-05-22T02:01:03.314Z,10.80
2019-05-22T02:03:34.283Z,10.80
2019-05-22T02:06:05.625Z,10.70
2019-05-22T02:08:38.343Z,10.70
2019-05-22T02:11:10.468Z,10.60
2019-05-22T02:13:43.976Z,10.60
2019-05-22T02:16:14.669Z,10.60
2019-05-22T02:18:46.121Z,10.60
2019-05-22T02:21:16.673Z,10.60
2019-05-22T02:23:48.539Z,10.50
2019-05-22T02:26:19.732Z,10.50
2019-05-22T02:28:50.861Z,10.50
2019-05-22T02:31:25.923Z,10.40
2019-05-22T02:34:03.831Z,10.40
2019-05-22T02:36:37.411Z,10.30
2019-05-22T02:39:15.658Z,10.30
2019-05-22T02:41:50.283Z,10.30
2019-05-22T02:44:20.952Z,10.20
2019-05-22T02:46:50.907Z,10.20
2019-05-22T02:49:20.915Z,10.10
2019-05-22T02:51:50.459Z,10.10
2019-05-22T02:54:20.170Z,10.00
2019-05-22T02:56:49.675Z,10.00
2019-05-22T02:59:18.901Z,10.00
2019-05-22T03:01:48.116Z,10.00
2019-05-22T03:04:19.747Z,10.00
2019-05-22T03:06:50.282Z,10.00
2019-05-22T03:09:24.497Z,9.90
2019-05-22T03:12:16.130Z,9.90
2019-05-22T03:14:45.395Z,9.90
2019-05-22T03:17:27.672Z,9.90
2019-05-22T03:19:59.854Z,9.90
2019-05-22T03:22:34.579Z,9.80
2019-05-22T03:25:09.889Z,9.80
2019-05-22T03:27:44.003Z,9.70
2019-05-22T03:30:34.662Z,9.80
2019-05-22T03:33:05.960Z,9.80
2019-05-22T03:35:46.285Z,9.80
2019-05-22T03:38:17.788Z,9.90
2019-05-22T03:40:48.770Z,9.80
2019-05-22T03:43:22.478Z,9.80
2019-05-22T03:45:54.374Z,9.80
2019-05-22T03:48:26.375Z,9.80
2019-05-22T03:51:00.768Z,9.70
2019-05-22T03:53:30.571Z,9.70
2019-05-22T03:56:00.831Z,9.70
2019-05-22T03:58:31.106Z,9.70
2019-05-22T04:01:03.532Z,9.70
2019-05-22T04:03:33.616Z,9.70
2019-05-22T04:06:04.697Z,9.70
2019-05-22T04:08:35.622Z,9.70
2019-05-22T04:11:07.961Z,9.70
2019-05-22T04:13:37.632Z,9.70
2019-05-22T04:16:10.339Z,9.80
2019-05-22T04:18:40.723Z,9.80
2019-05-22T04:21:10.078Z,9.90
2019-05-22T04:23:39.338Z,9.90
2019-05-22T04:26:12.059Z,10.00
2019-05-22T04:28:51.012Z,10.10
2019-05-22T04:31:31.697Z,10.20
2019-05-22T04:34:01.380Z,10.30
2019-05-22T04:36:30.573Z,10.50
2019-05-22T04:39:02.049Z,10.60
2019-05-22T04:41:31.702Z,10.70
2019-05-22T04:44:01.717Z,10.80
2019-05-22T04:46:31.369Z,10.90
2019-05-22T04:49:01.133Z,11.00
2019-05-22T04:51:31.773Z,11.20
2019-05-22T04:54:01.375Z,11.30
2019-05-22T04:56:31.770Z,11.40
2019-05-22T04:59:02.172Z,11.50
2019-05-22T05:01:32.504Z,11.50
2019-05-22T05:04:02.874Z,11.50
2019-05-22T05:06:35.706Z,11.50
2019-05-22T05:09:08.069Z,11.50
2019-05-22T05:11:38.863Z,11.60
2019-05-22T05:14:08.446Z,11.50
2019-05-22T05:16:38.017Z,11.50
2019-05-22T05:19:07.989Z,11.50
2019-05-22T05:21:38.988Z,11.60
2019-05-22T05:24:09.146Z,11.60
2019-05-22T05:26:38.416Z,11.70
2019-05-22T05:29:25.420Z,11.80
2019-05-22T05:31:55.378Z,11.70
2019-05-22T05:34:35.208Z,11.70
2019-05-22T05:37:07.659Z,11.80
2019-05-22T05:40:24.697Z,11.90
2019-05-22T05:42:54.747Z,12.00
2019-05-22T05:45:24.317Z,12.20
2019-05-22T05:47:53.601Z,12.40
2019-05-22T05:50:38.241Z,12.50
2019-05-22T05:52:56.451Z,12.60
2019-05-22T05:55:27.724Z,12.50
2019-05-22T05:58:26.779Z,12.50
2019-05-22T06:01:07.186Z,12.40
2019-05-22T06:03:40.394Z,12.30
2019-05-22T06:07:00.329Z,12.30
2019-05-22T06:09:30.933Z,12.30
2019-05-22T06:12:05.437Z,12.40
2019-05-22T06:14:35.418Z,12.70
2019-05-22T06:17:58.017Z,12.90
2019-05-22T06:20:28.626Z,13.20
2019-05-22T06:23:45.958Z,13.40
2019-05-22T06:26:29.245Z,13.50
2019-05-22T06:28:59.929Z,13.70
2019-05-22T06:31:42.026Z,13.90
2019-05-22T06:34:12.595Z,14.00
2019-05-22T06:36:43.073Z,14.20
2019-05-22T06:39:15.262Z,14.30
2019-05-22T06:41:46.066Z,14.40
2019-05-22T06:44:52.165Z,14.60
2019-05-22T06:47:21.709Z,14.70
2019-05-22T06:49:54.124Z,14.70
2019-05-22T06:52:24.400Z,14.90
2019-05-22T06:54:55.210Z,15.00
2019-05-22T06:57:31.752Z,15.10
2019-05-22T07:00:14.740Z,15.20
2019-05-22T07:02:35.461Z,15.40
2019-05-22T07:05:07.297Z,15.50
2019-05-22T07:07:37.707Z,15.60
2019-05-22T07:10:10.207Z,15.70
2019-05-22T07:12:40.112Z,15.80
2019-05-22T07:15:31.788Z,15.90
2019-05-22T07:18:03.112Z,16.00
2019-05-22T07:20:35.946Z,16.10
2019-05-22T07:23:09.112Z,16.30
2019-05-22T07:25:40.176Z,16.50
2019-05-22T07:28:10.192Z,16.60
2019-05-22T07:30:40.483Z,16.50
2019-05-22T07:33:10.275Z,16.50
2019-05-22T07:36:04.602Z,16.40
2019-05-22T07:38:10.697Z,16.40
2019-05-22T07:40:40.427Z,16.40
2019-05-22T07:43:09.670Z,16.70
2019-05-22T07:45:40.243Z,16.90
2019-05-22T07:48:11.031Z,17.10
2019-05-22T07:50:47.970Z,17.40
2019-05-22T07:53:17.046Z,17.60
2019-05-22T07:55:47.971Z,17.60
2019-05-22T07:58:18.637Z,17.40
2019-05-22T08:00:55.710Z,17.30
2019-05-22T08:03:26.278Z,17.40
2019-05-22T08:05:57.796Z,17.60
2019-05-22T08:08:29.736Z,17.70
2019-05-22T08:10:59.378Z,17.80
2019-05-22T08:13:30.414Z,17.90
2019-05-22T08:15:59.724Z,18.00
2019-05-22T08:18:32.604Z,18.00
2019-05-22T08:21:01.861Z,18.20
2019-05-22T08:23:31.541Z,18.50
2019-05-22T08:26:01.101Z,18.60
2019-05-22T08:28:33.039Z,18.90
2019-05-22T08:31:04.235Z,19.00
2019-05-22T08:33:35.194Z,19.10
2019-05-22T08:36:05.753Z,19.20
2019-05-22T08:38:36.075Z,19.20
2019-05-22T08:41:08.352Z,19.20
2019-05-22T08:44:03.449Z,19.30
2019-05-22T08:46:11.399Z,19.60
2019-05-22T08:48:47.795Z,19.80
2019-05-22T08:51:16.217Z,19.70
2019-05-22T08:53:47.980Z,20.10
2019-05-22T08:56:17.013Z,20.60
2019-05-22T08:58:47.573Z,20.50
2019-05-22T09:01:17.279Z,20.60
2019-05-22T09:03:48.849Z,20.60
2019-05-22T09:06:18.318Z,20.80
2019-05-22T09:08:48.067Z,21.00
2019-05-22T09:11:17.528Z,21.10
2019-05-22T09:13:47.023Z,21.10
2019-05-22T09:16:16.508Z,21.20
2019-05-22T09:18:46.224Z,21.10
2019-05-22T09:21:16.587Z,21.40
2019-05-22T09:23:46.708Z,21.50
2019-05-22T09:26:17.842Z,21.60
2019-05-22T09:28:47.831Z,21.40
2019-05-22T09:31:19.112Z,21.60
2019-05-22T09:33:49.723Z,21.70
2019-05-22T09:36:19.483Z,21.80
2019-05-22T09:38:52.216Z,21.70
2019-05-22T09:41:20.710Z,21.40
2019-05-22T09:43:50.121Z,21.20
2019-05-22T09:46:20.130Z,21.40
2019-05-22T09:48:49.583Z,21.60
2019-05-22T09:51:19.670Z,21.60
2019-05-22T09:53:50.049Z,21.70
2019-05-22T09:56:19.356Z,22.00
2019-05-22T09:58:48.753Z,22.40
2019-05-22T10:01:17.985Z,22.60
2019-05-22T10:03:47.658Z,22.90
2019-05-22T10:06:17.294Z,23.40
2019-05-22T10:08:46.930Z,23.80
2019-05-22T10:11:16.667Z,23.80
2019-05-22T10:13:46.257Z,23.70
2019-05-22T10:16:15.572Z,23.40
2019-05-22T10:18:45.017Z,23.40
2019-05-22T10:21:14.401Z,23.40
2019-05-22T10:23:44.960Z,23.50
2019-05-22T10:26:14.671Z,23.60
2019-05-22T10:28:43.929Z,23.60
2019-05-22T10:31:16.162Z,24.00
2019-05-22T10:33:44.750Z,24.20
2019-05-22T10:36:14.925Z,24.30
2019-05-22T10:38:44.492Z,24.90
2019-05-22T10:41:14.692Z,24.90
2019-05-22T10:43:44.818Z,24.90
2019-05-22T10:46:14.857Z,25.20
2019-05-22T10:48:44.777Z,25.50
2019-05-22T10:51:14.397Z,25.40
2019-05-22T10:53:44.479Z,25.30
2019-05-22T10:56:14.426Z,25.70
2019-05-22T10:58:43.657Z,26.40
2019-05-22T11:01:12.821Z,26.60
2019-05-22T11:03:42.030Z,26.60
2019-05-22T11:06:12.427Z,26.30
2019-05-22T11:08:43.175Z,25.80
2019-05-22T11:11:12.344Z,25.60
2019-05-22T11:13:59.375Z,25.30
2019-05-22T11:16:14.497Z,25.20
2019-05-22T11:18:44.212Z,25.20
2019-05-22T11:21:14.621Z,25.00
2019-05-22T11:23:52.132Z,25.20
2019-05-22T11:26:16.134Z,25.50
2019-05-22T11:28:45.417Z,25.50
2019-05-22T11:31:14.858Z,25.40
2019-05-22T11:33:44.987Z,25.40
2019-05-22T11:36:15.053Z,25.10
2019-05-22T11:38:44.678Z,25.00
2019-05-22T11:41:15.847Z,25.50
2019-05-22T11:43:45.817Z,26.20
2019-05-22T11:46:16.258Z,26.30
2019-05-22T11:48:45.850Z,26.40
2019-05-22T11:51:16.025Z,26.30
2019-05-22T11:53:45.377Z,26.10
2019-05-22T11:56:14.620Z,25.70
2019-05-22T11:58:43.965Z,25.50
2019-05-22T12:01:13.949Z,26.10
2019-05-22T12:03:43.424Z,26.70
2019-05-22T12:06:14.471Z,27.00
2019-05-22T12:08:44.168Z,27.30
2019-05-22T12:11:17.377Z,27.00
2019-05-22T12:13:48.881Z,26.60
2019-05-22T12:16:20.699Z,26.30
2019-05-22T12:18:50.243Z,26.30
2019-05-22T12:21:19.609Z,26.10
2019-05-22T12:23:49.403Z,26.10
2019-05-22T12:26:20.766Z,26.00
2019-05-22T12:28:50.418Z,26.00
2019-05-22T12:31:20.701Z,26.10
2019-05-22T12:33:51.050Z,26.40
2019-05-22T12:36:20.749Z,26.50
2019-05-22T12:38:51.147Z,26.40
2019-05-22T12:41:20.884Z,26.40
2019-05-22T12:43:50.175Z,26.30
2019-05-22T12:46:20.533Z,26.30
2019-05-22T12:48:50.203Z,26.70
2019-05-22T12:51:19.473Z,27.10
2019-05-22T12:53:48.757Z,26.90
2019-05-22T12:56:19.116Z,26.50
2019-05-22T12:58:48.364Z,26.30
2019-05-22T13:01:18.509Z,26.50
2019-05-22T13:03:49.299Z,26.40
2019-05-22T13:06:18.724Z,26.70
2019-05-22T13:08:48.224Z,26.60
2019-05-22T13:11:17.795Z,26.80
2019-05-22T13:13:47.669Z,26.90
2019-05-22T13:16:17.202Z,26.70
2019-05-22T13:18:48.702Z,26.30
2019-05-22T13:21:20.686Z,26.00
2019-05-22T13:23:51.433Z,25.80
2019-05-22T13:26:23.233Z,25.80
2019-05-22T13:28:54.806Z,25.70
2019-05-22T13:31:25.018Z,25.70
2019-05-22T13:33:54.951Z,25.80
2019-05-22T13:36:25.253Z,26.20
2019-05-22T13:38:55.054Z,26.20
2019-05-22T13:41:24.300Z,26.40
2019-05-22T13:43:54.954Z,26.50
2019-05-22T13:46:24.238Z,26.60
2019-05-22T13:48:53.820Z,26.40
2019-05-22T13:51:23.803Z,25.80
2019-05-22T13:53:53.692Z,25.70
2019-05-22T13:56:25.625Z,25.70
2019-05-22T13:58:54.211Z,25.50
2019-05-22T14:01:23.502Z,25.70
2019-05-22T14:04:03.932Z,25.40
2019-05-22T14:06:34.443Z,25.80
2019-05-22T14:09:03.910Z,26.40
2019-05-22T14:11:33.225Z,26.30
2019-05-22T14:14:02.741Z,26.50
2019-05-22T14:16:47.650Z,26.40
2019-05-22T14:19:07.196Z,26.50
2019-05-22T14:21:37.107Z,26.70
2019-05-22T14:24:06.706Z,26.90
2019-05-22T14:26:36.446Z,26.60
2019-05-22T14:29:06.793Z,26.20
2019-05-22T14:31:36.649Z,25.90
2019-05-22T14:34:07.387Z,26.20
2019-05-22T14:36:37.518Z,26.40
2019-05-22T14:39:10.280Z,26.30
2019-05-22T14:41:39.672Z,26.10
2019-05-22T14:44:08.873Z,26.00
2019-05-22T14:46:38.118Z,25.70
2019-05-22T14:49:07.723Z,25.40
2019-05-22T14:51:37.358Z,25.20
2019-05-22T14:54:07.995Z,25.10
2019-05-22T14:56:37.289Z,25.20
2019-05-22T14:59:07.740Z,25.20
2019-05-22T15:01:37.986Z,25.20
2019-05-22T15:04:07.691Z,25.10
2019-05-22T15:06:37.113Z,24.90
2019-05-22T15:09:08.698Z,24.80
2019-05-22T15:11:38.918Z,24.70
2019-05-22T15:14:08.290Z,24.60
2019-05-22T15:16:37.629Z,24.50
2019-05-22T15:19:06.994Z,24.30
2019-05-22T15:21:37.032Z,24.30
2019-05-22T15:24:08.259Z,24.30
2019-05-22T15:26:37.678Z,24.30
2019-05-22T15:29:08.485Z,24.30
2019-05-22T15:31:37.788Z,24.30
2019-05-22T15:34:07.900Z,24.40
2019-05-22T15:36:38.444Z,24.30
2019-05-22T15:39:08.837Z,24.10
2019-05-22T15:41:39.275Z,24.00
2019-05-22T15:44:09.995Z,23.90
2019-05-22T15:46:40.536Z,23.80
2019-05-22T15:49:12.597Z,23.70
2019-05-22T15:51:44.766Z,23.50
2019-05-22T15:54:15.967Z,23.50
2019-05-22T15:56:45.855Z,23.60
2019-05-22T15:59:17.497Z,23.60
2019-05-22T16:01:48.871Z,23.50
2019-05-22T16:04:20.292Z,23.20
2019-05-22T16:06:51.394Z,23.20
2019-05-22T16:09:23.606Z,23.20
2019-05-22T16:11:55.320Z,23.10
2019-05-22T16:14:28.357Z,22.90
2019-05-22T16:16:58.751Z,22.80
2019-05-22T16:19:34.496Z,22.80
2019-05-22T16:22:08.092Z,22.60
2019-05-22T16:24:39.189Z,22.50
2019-05-22T16:27:10.014Z,22.40
2019-05-22T16:29:41.208Z,22.40
2019-05-22T16:32:14.418Z,22.50
2019-05-22T16:34:45.018Z,22.60
2019-05-22T16:37:15.788Z,22.60
2019-05-22T16:39:49.839Z,22.70
2019-05-22T16:42:17.186Z,22.70
2019-05-22T16:44:46.539Z,22.70
2019-05-22T16:47:18.091Z,22.70
2019-05-22T16:49:48.068Z,22.60
2019-05-22T16:52:20.229Z,22.30
2019-05-22T16:54:51.164Z,22.20
2019-05-22T16:57:21.482Z,22.10
2019-05-22T16:59:51.943Z,21.80
2019-05-22T17:02:25.879Z,21.80
2019-05-22T17:04:55.815Z,21.60
2019-05-22T17:07:28.115Z,21.60
2019-05-22T17:09:56.441Z,21.60
2019-05-22T17:12:27.347Z,21.50
2019-05-22T17:14:57.205Z,21.50
2019-05-22T17:17:29.433Z,21.50
2019-05-22T17:20:04.901Z,21.60
2019-05-22T17:22:34.074Z,21.50
2019-05-22T17:25:04.540Z,21.50
2019-05-22T17:27:33.793Z,21.40
2019-05-22T17:30:03.353Z,21.40
2019-05-22T17:32:33.589Z,21.40
2019-05-22T17:35:05.794Z,21.30
2019-05-22T17:37:36.506Z,21.30
2019-05-22T17:40:08.649Z,21.30
2019-05-22T17:42:39.253Z,21.30
2019-05-22T17:45:11.530Z,21.20
2019-05-22T17:47:43.497Z,21.20
2019-05-22T17:50:25.907Z,21.10
2019-05-22T17:52:49.641Z,21.20
2019-05-22T17:55:22.468Z,21.20
2019-05-22T17:57:54.567Z,21.20
2019-05-22T18:00:30.564Z,21.20
2019-05-22T18:03:02.248Z,21.20
2019-05-22T18:05:33.339Z,21.10
2019-05-22T18:08:03.588Z,21.10
2019-05-22T18:10:40.283Z,21.10
2019-05-22T18:13:09.918Z,21.00
2019-05-22T18:15:39.537Z,21.00
2019-05-22T18:18:10.575Z,21.00
2019-05-22T18:20:43.771Z,21.00
2019-05-22T18:23:11.118Z,21.00
2019-05-22T18:25:40.317Z,20.80
2019-05-22T18:28:12.064Z,20.80
2019-05-22T18:30:42.778Z,20.70
2019-05-22T18:33:13.324Z,20.60
2019-05-22T18:35:42.748Z,20.50
2019-05-22T18:38:13.863Z,20.50
2019-05-22T18:40:43.120Z,20.50
2019-05-22T18:43:13.147Z,20.40
2019-05-22T18:45:42.781Z,20.40
2019-05-22T18:48:13.513Z,20.20
2019-05-22T18:50:43.551Z,20.10
2019-05-22T18:53:13.167Z,20.10
2019-05-22T18:55:44.347Z,19.90
2019-05-22T18:58:13.549Z,19.90
2019-05-22T19:00:43.923Z,19.70
2019-05-22T19:03:13.571Z,19.60
2019-05-22T19:05:43.826Z,19.60
2019-05-22T19:08:13.443Z,19.40
2019-05-22T19:10:42.871Z,19.40
2019-05-22T19:13:14.594Z,19.30
2019-05-22T19:15:44.164Z,19.20
2019-05-22T19:18:13.519Z,19.10
2019-05-22T19:20:43.044Z,19.00
2019-05-22T19:23:12.943Z,18.90
2019-05-22T19:25:42.373Z,18.90
2019-05-22T19:28:11.631Z,18.80
2019-05-22T19:30:42.817Z,18.70
2019-05-22T19:33:14.944Z,18.60
2019-05-22T19:35:43.911Z,18.40
2019-05-22T19:38:13.318Z,18.30
2019-05-22T19:40:43.202Z,18.20
2019-05-22T19:43:12.722Z,18.00
2019-05-22T19:45:42.876Z,17.90
2019-05-22T19:48:12.452Z,17.80
2019-05-22T19:50:43.006Z,17.70
2019-05-22T19:53:18.735Z,17.60
2019-05-22T19:55:45.409Z,17.60
2019-05-22T19:58:15.120Z,17.50
2019-05-22T20:00:45.068Z,17.40
2019-05-22T20:03:14.410Z,17.30
2019-05-22T20:05:44.520Z,17.20
2019-05-22T20:08:13.993Z,17.10
2019-05-22T20:10:44.398Z,17.00
2019-05-22T20:13:13.706Z,16.90
2019-05-22T20:15:43.898Z,16.90
2019-05-22T20:18:13.641Z,16.80
2019-05-22T20:20:43.190Z,16.80
2019-05-22T20:23:13.201Z,16.70
2019-05-22T20:25:42.774Z,16.60
2019-05-22T20:28:12.497Z,16.60
2019-05-22T20:30:41.782Z,16.50
2019-05-22T20:33:12.433Z,16.40
2019-05-22T20:35:42.053Z,16.40
2019-05-22T20:38:11.856Z,16.30
2019-05-22T20:40:41.893Z,16.30
2019-05-22T20:43:12.327Z,16.20
2019-05-22T20:45:45.061Z,16.10
2019-05-22T20:48:30.054Z,16.10
2019-05-22T20:51:01.769Z,16.10
2019-05-22T20:53:33.316Z,16.00
2019-05-22T20:56:03.388Z,15.90
2019-05-22T20:58:33.991Z,15.90
2019-05-22T21:01:03.338Z,15.80
2019-05-22T21:03:33.485Z,15.80
2019-05-22T21:06:06.825Z,15.70
2019-05-22T21:08:36.976Z,15.60
2019-05-22T21:11:08.636Z,15.60
2019-05-22T21:13:38.289Z,15.50
2019-05-22T21:16:09.801Z,15.50
2019-05-22T21:18:43.637Z,15.50
2019-05-22T21:21:14.470Z,15.40
2019-05-22T21:23:44.058Z,15.40
2019-05-22T21:26:15.251Z,15.30
2019-05-22T21:28:45.022Z,15.30
2019-05-22T21:31:16.668Z,15.20
2019-05-22T21:33:46.729Z,15.20
2019-05-22T21:36:18.606Z,15.20
2019-05-22T21:38:48.192Z,15.10
2019-05-22T21:41:21.282Z,15.10
2019-05-22T21:43:52.257Z,15.00
2019-05-22T21:46:22.362Z,15.00
2019-05-22T21:48:53.661Z,14.90
2019-05-22T21:51:23.467Z,14.90
2019-05-22T21:53:54.472Z,14.90
2019-05-22T21:56:24.360Z,14.90
2019-05-22T21:58:53.953Z,14.80
2019-05-22T22:01:31.441Z,14.80
2019-05-22T22:04:21.610Z,14.70
2019-05-22T22:06:53.838Z,14.70
2019-05-22T22:09:23.825Z,14.70
2019-05-22T22:11:54.402Z,14.60
2019-05-22T22:14:26.120Z,14.60
2019-05-22T22:16:56.299Z,14.60
2019-05-22T22:19:26.137Z,14.50
2019-05-22T22:21:56.029Z,14.50
2019-05-22T22:24:26.300Z,14.40
2019-05-22T22:26:57.177Z,14.40
2019-05-22T22:29:27.293Z,14.40
2019-05-22T22:31:59.040Z,14.40
2019-05-22T22:34:54.127Z,14.40
2019-05-22T22:37:24.819Z,14.40
2019-05-22T22:39:56.526Z,14.40
2019-05-22T22:42:29.305Z,14.40
2019-05-22T22:45:00.192Z,14.40
2019-05-22T22:47:39.492Z,14.30
2019-05-22T22:50:09.700Z,14.30
2019-05-22T22:52:39.918Z,14.30
2019-05-22T22:55:13.414Z,14.30
2019-05-22T22:57:43.228Z,14.20
2019-05-22T23:00:16.578Z,14.20
2019-05-22T23:02:48.361Z,14.30
2019-05-22T23:05:18.711Z,14.40
2019-05-22T23:07:49.310Z,14.40
2019-05-22T23:10:21.238Z,14.50
2019-05-22T23:12:54.218Z,14.50
2019-05-22T23:15:26.296Z,14.50
2019-05-22T23:17:56.264Z,14.40
2019-05-22T23:20:23.828Z,14.40
2019-05-22T23:22:52.103Z,14.30
2019-05-22T23:25:23.205Z,14.30
2019-05-22T23:27:53.261Z,14.30
2019-05-22T23:30:23.912Z,14.20
2019-05-22T23:32:54.715Z,14.20
2019-05-22T23:35:25.571Z,14.10
2019-05-22T23:37:57.091Z,14.00
2019-05-22T23:40:30.566Z,14.00
2019-05-22T23:43:01.889Z,13.90
2019-05-22T23:45:32.153Z,13.90
2019-05-22T23:48:12.231Z,13.80
2019-05-22T23:50:41.774Z,13.80
2019-05-22T23:53:12.258Z,13.70
2019-05-22T23:55:43.003Z,13.70
2019-05-22T23:58:14.036Z,13.70
